createdAt,value
2022-10-18T00:02:09.690Z,4.85
2022-10-18T00:04:36.531Z,3.97
2022-10-18T00:07:03.006Z,5.15
2022-10-18T00:09:29.763Z,5.40
2022-10-18T00:11:56.923Z,5.10
2022-10-18T00:14:23.560Z,4.00
2022-10-18T00:16:49.887Z,5.97
2022-10-18T00:19:16.226Z,4.68
2022-10-18T00:21:46.030Z,5.47
2022-10-18T00:24:12.400Z,5.78
2022-10-18T00:26:38.764Z,4.00
2022-10-18T00:29:05.846Z,4.70
2022-10-18T00:31:37.721Z,4.70
2022-10-18T00:34:06.808Z,4.53
2022-10-18T00:36:34.394Z,4.70
2022-10-18T00:39:02.512Z,3.60
2022-10-18T00:41:31.788Z,3.97
2022-10-18T00:44:04.334Z,4.65
2022-10-18T00:46:32.998Z,3.55
2022-10-18T00:49:02.304Z,4.82
2022-10-18T00:51:33.815Z,3.90
2022-10-18T00:54:00.411Z,2.90
2022-10-18T00:56:26.944Z,4.07
2022-10-18T00:58:53.916Z,3.72
2022-10-18T01:01:23.232Z,4.82
2022-10-18T01:03:53.069Z,4.55
2022-10-18T01:06:19.622Z,4.30
2022-10-18T01:09:07.151Z,3.80
2022-10-18T01:11:43.102Z,3.83
2022-10-18T01:14:21.276Z,2.92
2022-10-18T01:16:53.041Z,2.40
2022-10-18T01:19:57.640Z,2.77
2022-10-18T01:22:28.979Z,6.50
2022-10-18T01:25:05.085Z,7.13
2022-10-18T01:28:02.607Z,7.60
2022-10-18T01:30:53.854Z,9.02
2022-10-18T01:33:28.680Z,8.57
2022-10-18T01:36:14.035Z,8.15
2022-10-18T01:38:42.371Z,7.80
2022-10-18T01:41:14.855Z,6.60
2022-10-18T01:43:45.236Z,5.03
2022-10-18T01:46:13.416Z,5.47
2022-10-18T01:48:39.890Z,5.70
2022-10-18T01:51:06.291Z,5.13
2022-10-18T01:53:34.676Z,6.40
2022-10-18T01:56:31.306Z,7.20
2022-10-18T01:59:36.434Z,5.60
2022-10-18T02:02:07.616Z,5.50
2022-10-18T02:05:01.424Z,5.35
2022-10-18T02:07:34.409Z,6.55
2022-10-18T02:10:18.094Z,4.82
2022-10-18T02:12:46.671Z,4.43
2022-10-18T02:15:16.681Z,5.22
2022-10-18T02:17:45.159Z,6.10
2022-10-18T02:20:14.704Z,4.93
2022-10-18T02:22:45.755Z,5.13
2022-10-18T02:25:19.442Z,5.60
2022-10-18T02:27:46.115Z,5.10
2022-10-18T02:30:13.006Z,6.25
2022-10-18T02:32:50.194Z,6.63
2022-10-18T02:35:29.488Z,6.68
2022-10-18T02:37:58.064Z,5.00
2022-10-18T02:40:25.333Z,5.28
2022-10-18T02:42:57.806Z,5.28
2022-10-18T02:45:25.548Z,5.30
2022-10-18T02:47:53.057Z,4.05
2022-10-18T02:50:19.420Z,4.37
2022-10-18T02:52:45.782Z,4.95
2022-10-18T02:55:12.236Z,4.90
2022-10-18T02:57:38.658Z,5.43
2022-10-18T03:00:06.197Z,4.20
2022-10-18T03:02:32.638Z,8.47
2022-10-18T03:04:59.012Z,4.53
2022-10-18T03:07:25.403Z,4.15
2022-10-18T03:09:51.760Z,4.97
2022-10-18T03:12:18.339Z,4.57
2022-10-18T03:14:44.688Z,4.47
2022-10-18T03:17:11.162Z,5.60
2022-10-18T03:19:38.670Z,4.78
2022-10-18T03:22:05.685Z,4.25
2022-10-18T03:24:32.377Z,3.80
2022-10-18T03:26:58.763Z,4.33
2022-10-18T03:29:25.083Z,4.18
2022-10-18T03:31:51.385Z,5.00
2022-10-18T03:34:17.855Z,4.38
2022-10-18T03:36:44.266Z,3.53
2022-10-18T03:39:12.311Z,2.37
2022-10-18T03:41:38.684Z,3.65
2022-10-18T03:44:05.171Z,2.95
2022-10-18T03:46:31.536Z,2.10
2022-10-18T03:48:57.927Z,2.17
2022-10-18T03:51:24.285Z,2.80
2022-10-18T03:53:50.592Z,3.40
2022-10-18T03:56:16.887Z,1.40
2022-10-18T03:58:43.204Z,2.10
2022-10-18T04:01:09.604Z,2.33
2022-10-18T04:03:35.965Z,2.87
2022-10-18T04:06:03.552Z,4.60
2022-10-18T04:08:30.460Z,4.40
2022-10-18T04:10:56.798Z,3.60
2022-10-18T04:13:23.167Z,6.78
2022-10-18T04:15:49.481Z,6.07
2022-10-18T04:18:15.778Z,7.20
2022-10-18T04:20:42.137Z,2.42
2022-10-18T04:23:08.446Z,2.33
2022-10-18T04:25:34.856Z,1.85
2022-10-18T04:28:01.306Z,4.67
2022-10-18T04:30:27.628Z,2.42
2022-10-18T04:32:53.930Z,3.92
2022-10-18T04:35:24.314Z,1.67
2022-10-18T04:37:50.850Z,3.75
2022-10-18T04:40:17.384Z,2.67
2022-10-18T04:42:43.703Z,2.22
2022-10-18T04:45:10.458Z,1.02
2022-10-18T04:47:36.785Z,1.52
2022-10-18T04:50:04.674Z,3.03
2022-10-18T04:52:31.332Z,1.67
2022-10-18T04:54:57.650Z,1.60
2022-10-18T04:57:24.078Z,1.35
2022-10-18T04:59:50.391Z,0.85
2022-10-18T05:02:16.755Z,1.00
2022-10-18T05:04:43.088Z,1.30
2022-10-18T05:07:09.436Z,1.10
2022-10-18T05:09:35.812Z,1.00
2022-10-18T05:12:02.121Z,1.20
2022-10-18T05:14:28.438Z,1.10
2022-10-18T05:16:54.777Z,1.83
2022-10-18T05:19:21.165Z,0.80
2022-10-18T05:21:47.478Z,0.90
2022-10-18T05:24:13.829Z,0.70
2022-10-18T05:26:40.283Z,0.73
2022-10-18T05:29:06.740Z,3.60
2022-10-18T05:31:33.142Z,1.58
2022-10-18T05:33:59.474Z,0.68
2022-10-18T05:36:26.128Z,0.90
2022-10-18T05:38:53.492Z,0.88
2022-10-18T05:41:19.919Z,0.70
2022-10-18T05:43:46.219Z,1.25
2022-10-18T05:46:15.322Z,0.60
2022-10-18T05:48:44.063Z,0.52
2022-10-18T05:51:10.526Z,1.65
2022-10-18T05:53:38.053Z,1.20
2022-10-18T05:56:05.544Z,0.75
2022-10-18T05:58:32.049Z,0.93
2022-10-18T06:01:00.786Z,1.52
2022-10-18T06:03:36.239Z,2.40
2022-10-18T06:06:05.396Z,1.40
2022-10-18T06:08:32.324Z,1.23
2022-10-18T06:10:58.837Z,1.30
2022-10-18T06:13:25.223Z,2.33
2022-10-18T06:15:56.328Z,1.08
2022-10-18T06:18:22.646Z,1.70
2022-10-18T06:20:48.954Z,1.90
2022-10-18T06:23:15.285Z,1.20
2022-10-18T06:25:41.598Z,1.48
2022-10-18T06:28:10.177Z,1.50
2022-10-18T06:30:38.444Z,2.03
2022-10-18T06:33:04.768Z,2.25
2022-10-18T06:35:31.106Z,1.92
2022-10-18T06:37:57.587Z,2.17
2022-10-18T06:40:24.015Z,2.78
2022-10-18T06:43:00.043Z,2.13
2022-10-18T06:45:27.102Z,3.05
2022-10-18T06:47:53.411Z,1.85
2022-10-18T06:50:19.703Z,2.38
2022-10-18T06:52:46.869Z,2.33
2022-10-18T06:55:13.380Z,2.20
2022-10-18T06:57:39.856Z,2.85
2022-10-18T07:00:06.679Z,2.40
2022-10-18T07:02:33.384Z,2.40
2022-10-18T07:04:59.848Z,2.30
2022-10-18T07:07:26.187Z,3.10
2022-10-18T07:09:52.563Z,2.42
2022-10-18T07:12:18.910Z,3.40
2022-10-18T07:14:46.188Z,3.20
2022-10-18T07:17:12.508Z,3.25
2022-10-18T07:19:38.872Z,4.07
2022-10-18T07:22:05.173Z,3.65
2022-10-18T07:27:02.807Z,2.90
2022-10-18T07:29:29.215Z,3.88
2022-10-18T07:31:55.580Z,3.30
2022-10-18T07:34:21.937Z,2.90
2022-10-18T07:36:48.336Z,3.28
2022-10-18T07:39:15.117Z,3.92
2022-10-18T07:41:41.433Z,3.53
2022-10-18T07:44:07.798Z,3.00
2022-10-18T07:46:34.140Z,3.33
2022-10-18T07:49:00.551Z,2.80
2022-10-18T07:51:28.050Z,2.50
2022-10-18T07:53:54.385Z,3.45
2022-10-18T07:56:21.813Z,3.33
2022-10-18T07:58:53.527Z,2.20
2022-10-18T08:01:21.442Z,1.92
2022-10-18T08:03:47.810Z,2.45
2022-10-18T08:06:18.507Z,2.08
2022-10-18T08:08:45.520Z,2.10
2022-10-18T08:11:15.737Z,2.33
2022-10-18T08:13:43.006Z,1.63
2022-10-18T08:16:12.347Z,2.22
2022-10-18T08:18:39.298Z,2.00
2022-10-18T08:21:09.013Z,2.57
2022-10-18T08:23:35.812Z,3.63
2022-10-18T08:26:03.721Z,2.17
2022-10-18T08:28:30.150Z,2.40
2022-10-18T08:30:56.542Z,1.98
2022-10-18T08:33:23.612Z,2.17
2022-10-18T08:36:01.083Z,1.90
2022-10-18T08:38:31.364Z,1.60
2022-10-18T08:41:23.494Z,1.48
2022-10-18T08:44:04.695Z,1.75
2022-10-18T08:46:36.916Z,1.50
2022-10-18T08:49:05.419Z,2.15
2022-10-18T08:51:45.263Z,1.88
2022-10-18T08:54:18.566Z,2.53
2022-10-18T08:56:52.715Z,2.47
2022-10-18T08:59:23.234Z,2.60
2022-10-18T09:02:04.450Z,2.78
2022-10-18T09:05:01.662Z,3.08
2022-10-18T09:07:51.546Z,2.30
2022-10-18T09:10:33.814Z,2.60
2022-10-18T09:13:18.943Z,2.57
2022-10-18T09:15:51.222Z,2.60
2022-10-18T09:18:36.521Z,2.20
2022-10-18T09:21:41.502Z,2.58
2022-10-18T09:24:26.583Z,2.10
2022-10-18T09:26:59.310Z,1.90
2022-10-18T09:29:47.171Z,2.03
2022-10-18T09:32:39.023Z,1.67
2022-10-18T09:35:48.893Z,2.03
2022-10-18T09:38:21.477Z,1.80
2022-10-18T09:40:54.967Z,1.40
2022-10-18T09:43:25.726Z,1.60
2022-10-18T09:45:54.382Z,1.55
2022-10-18T09:48:33.829Z,1.55
2022-10-18T09:51:17.528Z,1.40
2022-10-18T09:54:02.090Z,1.03
2022-10-18T09:56:52.222Z,2.13
2022-10-18T09:59:31.159Z,1.40
2022-10-18T10:01:57.544Z,1.15
2022-10-18T10:04:23.836Z,1.20
2022-10-18T10:06:52.240Z,1.33
2022-10-18T10:09:25.591Z,0.95
2022-10-18T10:11:52.259Z,1.20
2022-10-18T10:14:23.640Z,0.90
2022-10-18T10:17:29.617Z,0.40
2022-10-18T10:19:57.827Z,0.80
2022-10-18T10:22:35.116Z,0.70
2022-10-18T10:25:02.040Z,0.40
2022-10-18T10:27:43.272Z,0.30
2022-10-18T10:30:37.343Z,0.40
2022-10-18T10:33:05.504Z,0.73
2022-10-18T10:35:49.003Z,0.60
2022-10-18T10:38:24.631Z,0.40
2022-10-18T10:40:51.246Z,0.60
2022-10-18T10:43:39.344Z,0.55
2022-10-18T10:46:15.595Z,0.40
2022-10-18T10:48:57.062Z,0.65
2022-10-18T10:51:36.419Z,0.35
2022-10-18T10:54:17.594Z,0.43
2022-10-18T10:57:02.345Z,0.35
2022-10-18T10:59:44.271Z,0.63
2022-10-18T11:02:13.851Z,0.70
2022-10-18T11:04:41.137Z,0.40
2022-10-18T11:07:27.715Z,0.50
2022-10-18T11:09:59.966Z,0.30
2022-10-18T11:12:34.159Z,0.30
2022-10-18T11:15:10.259Z,0.50
2022-10-18T11:17:44.043Z,0.40
2022-10-18T11:20:24.663Z,0.77
2022-10-18T11:22:56.763Z,0.47
2022-10-18T11:25:28.830Z,0.60
2022-10-18T11:28:04.205Z,0.40
2022-10-18T11:30:46.144Z,0.30
2022-10-18T11:33:49.442Z,0.30
2022-10-18T11:37:22.994Z,0.60
2022-10-18T11:40:00.779Z,0.50
2022-10-18T11:42:30.147Z,0.50
2022-10-18T11:45:18.385Z,0.73
2022-10-18T11:47:56.096Z,0.25
2022-10-18T11:50:54.077Z,0.40
2022-10-18T11:53:41.747Z,0.43
2022-10-18T11:56:32.042Z,0.30
2022-10-18T11:59:17.609Z,0.43
2022-10-18T12:01:51.772Z,1.42
2022-10-18T12:04:22.395Z,0.43
2022-10-18T12:06:51.989Z,0.40
2022-10-18T12:09:38.914Z,0.45
2022-10-18T12:12:16.348Z,0.40
2022-10-18T12:14:49.104Z,0.30
2022-10-18T12:17:49.923Z,1.30
2022-10-18T12:20:23.202Z,1.13
2022-10-18T12:22:57.007Z,0.30
2022-10-18T12:25:24.368Z,0.60
2022-10-18T12:28:08.700Z,0.20
2022-10-18T12:30:46.055Z,0.30
2022-10-18T12:33:28.371Z,0.67
2022-10-18T12:36:13.950Z,0.20
2022-10-18T12:38:45.319Z,0.20
2022-10-18T12:41:25.030Z,0.30
2022-10-18T12:43:55.407Z,0.22
2022-10-18T12:46:22.086Z,0.50
2022-10-18T12:49:04.313Z,0.30
2022-10-18T12:51:31.206Z,0.20
2022-10-18T12:54:00.473Z,0.30
2022-10-18T12:56:30.118Z,0.60
2022-10-18T12:59:28.880Z,0.20
2022-10-18T13:01:55.289Z,0.25
2022-10-18T13:04:27.750Z,0.20
2022-10-18T13:06:57.142Z,0.20
2022-10-18T13:09:29.608Z,0.40
2022-10-18T13:12:18.847Z,0.30
2022-10-18T13:15:24.091Z,0.50
2022-10-18T13:18:04.136Z,0.40
2022-10-18T13:20:56.228Z,0.77
2022-10-18T13:23:42.975Z,0.10
2022-10-18T13:26:31.947Z,0.20
2022-10-18T13:29:15.270Z,0.20
2022-10-18T13:31:47.503Z,0.52
2022-10-18T13:34:33.075Z,0.20
2022-10-18T13:37:18.508Z,0.20
2022-10-18T13:39:45.123Z,0.20
2022-10-18T13:42:14.397Z,0.15
2022-10-18T13:44:43.498Z,0.20
2022-10-18T13:47:13.150Z,0.20
2022-10-18T13:49:39.447Z,0.13
2022-10-18T13:52:43.062Z,0.40
2022-10-18T13:55:21.478Z,0.13
2022-10-18T13:57:47.693Z,0.20
2022-10-18T14:00:48.788Z,0.10
2022-10-18T14:04:03.215Z,0.60
2022-10-18T14:06:43.532Z,0.67
2022-10-18T14:12:21.430Z,0.10
2022-10-18T14:15:01.922Z,0.10
2022-10-18T14:17:35.050Z,0.20
2022-10-18T14:20:14.531Z,0.10
2022-10-18T14:22:47.933Z,0.10
2022-10-18T14:25:27.288Z,0.50
2022-10-18T14:28:31.497Z,0.93
2022-10-18T14:31:19.988Z,0.20
2022-10-18T14:33:57.032Z,0.83
2022-10-18T14:36:27.024Z,0.55
2022-10-18T14:38:59.179Z,0.85
2022-10-18T14:41:27.870Z,1.17
2022-10-18T14:44:15.601Z,0.60
2022-10-18T14:46:47.757Z,0.60
2022-10-18T14:49:14.991Z,0.38
2022-10-18T14:51:43.463Z,0.73
2022-10-18T14:54:32.403Z,0.20
2022-10-18T14:57:00.353Z,0.28
2022-10-18T14:59:29.808Z,0.43
2022-10-18T15:02:00.236Z,0.43
2022-10-18T15:04:33.121Z,0.28
2022-10-18T15:07:05.829Z,0.22
2022-10-18T15:09:35.509Z,0.52
2022-10-18T15:12:07.049Z,0.20
2022-10-18T15:14:34.688Z,0.20
2022-10-18T15:17:34.172Z,0.20
2022-10-18T15:20:06.205Z,0.20
2022-10-18T15:22:33.530Z,0.50
2022-10-18T15:25:05.850Z,0.20
2022-10-18T15:27:36.743Z,0.20
2022-10-18T15:30:10.905Z,0.32
2022-10-18T15:32:37.792Z,0.40
2022-10-18T15:35:14.161Z,0.30
2022-10-18T15:37:43.994Z,0.30
2022-10-18T15:40:34.079Z,0.30
2022-10-18T15:43:25.374Z,0.43
2022-10-18T15:45:58.771Z,0.10
2022-10-18T15:48:39.708Z,1.00
2022-10-18T15:51:32.650Z,0.33
2022-10-18T15:53:58.955Z,0.20
2022-10-18T15:56:34.954Z,0.30
2022-10-18T15:59:04.723Z,0.17
2022-10-18T16:01:36.269Z,0.20
2022-10-18T16:04:09.063Z,0.50
2022-10-18T16:06:38.441Z,0.63
2022-10-18T16:09:05.301Z,0.30
2022-10-18T16:11:31.631Z,0.40
2022-10-18T16:14:00.349Z,0.28
2022-10-18T16:16:28.839Z,0.30
2022-10-18T16:18:56.367Z,0.30
2022-10-18T16:21:32.831Z,0.25
2022-10-18T16:23:59.574Z,0.30
2022-10-18T16:26:27.334Z,0.20
2022-10-18T16:28:55.215Z,0.20
2022-10-18T16:31:24.807Z,0.25
2022-10-18T16:33:52.560Z,0.52
2022-10-18T16:36:24.823Z,0.28
2022-10-18T16:38:51.442Z,0.50
2022-10-18T16:41:18.267Z,0.40
2022-10-18T16:43:46.582Z,0.50
2022-10-18T16:46:20.857Z,0.65
2022-10-18T16:48:49.027Z,0.77
2022-10-18T16:51:15.791Z,0.50
2022-10-18T16:53:42.251Z,0.20
2022-10-18T16:56:20.833Z,0.70
2022-10-18T16:58:47.721Z,0.65
2022-10-18T17:01:16.552Z,0.30
2022-10-18T17:03:43.285Z,0.90
2022-10-18T17:06:32.062Z,0.50
2022-10-18T17:08:59.538Z,0.73
2022-10-18T17:11:28.184Z,0.50
2022-10-18T17:13:55.039Z,0.50
2022-10-18T17:19:02.195Z,1.20
2022-10-18T17:21:29.542Z,1.30
2022-10-18T17:24:04.482Z,0.85
2022-10-18T17:26:31.476Z,1.60
2022-10-18T17:29:00.762Z,1.20
2022-10-18T17:31:28.203Z,1.47
2022-10-18T17:33:55.241Z,1.77
2022-10-18T17:36:22.250Z,1.80
2022-10-18T17:38:52.895Z,0.98
2022-10-18T17:41:19.694Z,1.25
2022-10-18T17:43:47.854Z,1.43
2022-10-18T17:46:14.346Z,0.93
2022-10-18T17:48:41.925Z,1.60
2022-10-18T17:51:09.867Z,3.15
2022-10-18T17:53:36.309Z,3.53
2022-10-18T17:56:04.410Z,5.77
2022-10-18T17:58:31.353Z,4.68
2022-10-18T18:00:58.465Z,3.97
2022-10-18T18:03:24.880Z,2.63
2022-10-18T18:05:51.195Z,2.55
2022-10-18T18:08:17.545Z,1.77
2022-10-18T18:10:43.909Z,1.42
2022-10-18T18:13:10.272Z,2.20
2022-10-18T18:15:36.604Z,1.80
2022-10-18T18:18:03.047Z,2.20
2022-10-18T18:20:29.443Z,2.97
2022-10-18T18:22:55.788Z,2.13
2022-10-18T18:25:22.096Z,2.60
2022-10-18T18:27:48.388Z,2.70
2022-10-18T18:30:17.558Z,2.95
2022-10-18T18:32:43.892Z,4.57
2022-10-18T18:35:10.194Z,9.18
2022-10-18T18:37:36.499Z,9.60
2022-10-18T18:40:03.065Z,8.38
2022-10-18T18:42:29.403Z,6.45
2022-10-18T18:44:55.754Z,6.77
2022-10-18T18:47:23.275Z,6.00
2022-10-18T18:49:51.360Z,5.07
2022-10-18T18:52:17.687Z,3.85
2022-10-18T18:54:44.125Z,2.58
2022-10-18T18:57:10.489Z,2.70
2022-10-18T18:59:36.876Z,1.70
2022-10-18T19:02:03.240Z,1.55
2022-10-18T19:04:29.692Z,1.15
2022-10-18T19:06:55.989Z,1.10
2022-10-18T19:09:22.892Z,1.30
2022-10-18T19:11:52.777Z,1.08
2022-10-18T19:14:19.604Z,1.02
2022-10-18T19:16:49.877Z,1.50
2022-10-18T19:19:21.551Z,0.93
2022-10-18T19:21:53.423Z,1.03
2022-10-18T19:24:21.003Z,0.90
2022-10-18T19:26:52.179Z,0.63
2022-10-18T19:29:28.998Z,1.02
2022-10-18T19:31:57.562Z,0.80
2022-10-18T19:34:25.879Z,1.67
2022-10-18T19:36:52.723Z,1.20
2022-10-18T19:39:24.718Z,0.65
2022-10-18T19:41:55.087Z,0.82
2022-10-18T19:44:23.029Z,0.90
2022-10-18T19:46:50.844Z,0.73
2022-10-18T19:49:17.358Z,0.90
2022-10-18T19:51:43.975Z,0.82
2022-10-18T19:54:14.739Z,1.10
2022-10-18T19:56:41.811Z,0.80
2022-10-18T19:59:08.735Z,0.73
2022-10-18T20:01:36.112Z,1.00
2022-10-18T20:04:06.540Z,1.05
2022-10-18T20:06:33.266Z,1.20
2022-10-18T20:08:59.702Z,1.70
2022-10-18T20:11:28.786Z,1.80
2022-10-18T20:13:56.346Z,0.82
2022-10-18T20:16:28.094Z,0.73
2022-10-18T20:18:59.781Z,0.85
2022-10-18T20:21:28.226Z,0.95
2022-10-18T20:23:54.944Z,0.70
2022-10-18T20:26:21.842Z,0.65
2022-10-18T20:28:56.169Z,0.90
2022-10-18T20:31:29.057Z,1.55
2022-10-18T20:34:01.651Z,1.08
2022-10-18T20:36:29.548Z,0.80
2022-10-18T20:38:56.331Z,0.80
2022-10-18T20:41:30.752Z,1.33
2022-10-18T20:43:59.310Z,0.80
2022-10-18T20:46:27.129Z,0.70
2022-10-18T20:48:54.219Z,0.80
2022-10-18T20:51:21.933Z,0.50
2022-10-18T20:53:49.311Z,1.42
2022-10-18T20:56:20.142Z,1.70
2022-10-18T20:58:50.327Z,2.40
2022-10-18T21:01:19.406Z,2.80
2022-10-18T21:03:47.949Z,2.60
2022-10-18T21:06:16.764Z,2.35
2022-10-18T21:08:44.646Z,2.00
2022-10-18T21:11:12.130Z,2.47
2022-10-18T21:13:40.662Z,2.50
2022-10-18T21:16:07.847Z,3.15
2022-10-18T21:18:36.752Z,2.50
2022-10-18T21:23:40.284Z,1.83
2022-10-18T21:26:07.387Z,1.67
2022-10-18T21:28:34.470Z,1.20
2022-10-18T21:31:15.914Z,1.27
2022-10-18T21:33:43.716Z,1.10
2022-10-18T21:36:10.725Z,1.40
2022-10-18T21:38:37.802Z,1.70
2022-10-18T21:41:09.783Z,2.85
2022-10-18T21:43:39.474Z,2.08
2022-10-18T21:46:05.991Z,2.03
2022-10-18T21:48:32.305Z,5.43
2022-10-18T21:51:06.118Z,3.93
2022-10-18T21:53:33.011Z,3.05
2022-10-18T21:56:07.900Z,1.90
2022-10-18T21:58:35.887Z,1.45
2022-10-18T22:01:09.986Z,2.28
2022-10-18T22:03:37.127Z,3.50
2022-10-18T22:06:13.107Z,3.92
2022-10-18T22:08:44.573Z,4.50
2022-10-18T22:11:12.765Z,3.47
2022-10-18T22:13:39.520Z,4.10
2022-10-18T22:16:07.301Z,4.63
2022-10-18T22:18:33.830Z,4.40
2022-10-18T22:21:03.430Z,3.78
2022-10-18T22:23:43.575Z,4.18
2022-10-18T22:26:22.295Z,3.58
2022-10-18T22:28:54.466Z,4.33
2022-10-18T22:31:22.911Z,3.13
2022-10-18T22:33:54.928Z,4.53
2022-10-18T22:36:21.858Z,4.72
2022-10-18T22:38:48.453Z,5.80
2022-10-18T22:41:14.851Z,5.00
2022-10-18T22:43:41.330Z,4.32
2022-10-18T22:46:10.668Z,4.70
2022-10-18T22:48:37.404Z,5.90
2022-10-18T22:51:04.377Z,4.72
2022-10-18T22:53:32.219Z,5.25
2022-10-18T22:55:58.802Z,5.97
2022-10-18T22:58:25.672Z,5.15
2022-10-18T23:00:59.230Z,4.75
2022-10-18T23:03:25.594Z,5.55
2022-10-18T23:05:52.059Z,4.70
2022-10-18T23:08:18.420Z,4.65
2022-10-18T23:10:44.796Z,4.35
2022-10-18T23:13:11.155Z,5.13
2022-10-18T23:15:41.003Z,5.07
2022-10-18T23:18:07.401Z,4.63
2022-10-18T23:20:33.784Z,4.95
2022-10-18T23:23:00.345Z,4.05
2022-10-18T23:25:27.180Z,5.00
2022-10-18T23:27:53.680Z,4.30
2022-10-18T23:30:20.041Z,4.20
2022-10-18T23:32:46.439Z,4.43
2022-10-18T23:35:12.796Z,4.85
2022-10-18T23:37:39.131Z,4.15
2022-10-18T23:40:06.046Z,3.67
2022-10-18T23:42:32.369Z,4.15
2022-10-18T23:44:58.753Z,3.70
2022-10-18T23:47:25.142Z,3.75
2022-10-18T23:49:51.476Z,2.85
2022-10-18T23:52:17.999Z,3.67
2022-10-18T23:57:15.731Z,3.22
2022-10-18T23:59:42.124Z,2.95
